Time;durP1;ratioP1;P1;durP2;ratioP2;P2;SDS_P1;SDS_P2;PMS_P1;PMS_P2;Temp;Humidity;BMP_temperature;BMP_pressure;BME280_temperature;BME280_humidity;BME280_pressure;Samples;Min_cycle;Max_cycle;Signal;HPM_P1;HPM_P2
2022/08/24 00:01:26;;;;;;;11.90;2.77;;;;;;;30.33;48.55;101146.80;1787914;80;20983;-51
2022/08/24 00:03:56;;;;;;;7.87;2.12;;;;;;;30.31;48.58;101146.10;1787884;80;20966;-50
2022/08/24 00:06:23;;;;;;;5.85;1.82;;;;;;;30.30;48.10;101149.77;1782924;80;20954;-50
2022/08/24 00:08:52;;;;;;;5.72;1.87;;;;;;;30.29;47.97;101153.46;1787743;80;20947;-50
2022/08/24 00:11:19;;;;;;;5.90;1.62;;;;;;;30.29;47.82;101153.92;1787796;80;21438;-52
2022/08/24 00:13:46;;;;;;;8.43;2.00;;;;;;;30.30;47.84;101151.11;1787829;80;20998;-49
2022/08/24 00:16:13;;;;;;;7.92;2.67;;;;;;;30.30;48.10;101144.39;1787301;80;20958;-51
2022/08/24 00:18:39;;;;;;;6.40;2.27;;;;;;;30.31;48.25;101147.93;1787846;80;20981;-52
2022/08/24 00:21:06;;;;;;;9.10;2.22;;;;;;;30.31;48.35;101147.93;1787848;80;21003;-53
2022/08/24 00:23:34;;;;;;;9.90;2.27;;;;;;;30.30;48.46;101151.59;1787819;80;20951;-53
2022/08/24 00:26:01;;;;;;;9.63;2.30;;;;;;;30.30;48.51;101152.45;1787851;80;20950;-49
2022/08/24 00:28:29;;;;;;;7.95;2.95;;;;;;;30.29;48.67;101147.20;1788137;80;20978;-50
2022/08/24 00:30:55;;;;;;;9.68;3.40;;;;;;;30.28;48.81;101149.04;1787907;80;20969;-52
2022/08/24 00:33:22;;;;;;;19.85;4.65;;;;;;;30.28;48.95;101149.04;1787883;80;21407;-49
2022/08/24 00:35:49;;;;;;;12.85;4.35;;;;;;;30.29;49.07;101148.09;1787863;80;20966;-50
2022/08/24 00:38:15;;;;;;;10.28;4.40;;;;;;;30.28;49.14;101146.36;1767891;80;20974;-50
2022/08/24 00:40:45;;;;;;;16.32;4.78;;;;;;;30.29;49.17;101150.78;1787535;80;21392;-49
2022/08/24 00:43:12;;;;;;;11.15;4.37;;;;;;;30.31;49.27;101154.16;1787849;80;20943;-49
2022/08/24 00:45:49;;;;;;;12.70;4.60;;;;;;;30.30;49.03;101152.45;1787860;80;20967;-55
2022/08/24 00:48:20;;;;;;;12.20;4.45;;;;;;;30.31;48.86;101152.81;1781978;80;20966;-49
2022/08/24 00:50:52;;;;;;;13.75;4.30;;;;;;;30.32;48.71;101157.66;1723210;83;20962;-54
2022/08/24 00:53:42;;;;;;;7.00;3.70;;;;;;;30.32;48.54;101154.48;1717497;83;20950;-50
2022/08/24 00:56:13;;;;;;;12.58;3.42;;;;;;;30.31;48.23;101154.16;1668069;86;21049;-52
2022/08/24 00:58:43;;;;;;;;;;;;;;;30.30;48.09;101159.65;1652091;87;21636;-50
2022/08/24 01:01:12;;;;;;;12.55;5.22;;;;;;;30.28;48.73;101162.95;1621895;87;20153;-49
2022/08/24 01:03:39;;;;;;;9.35;3.95;;;;;;;30.24;49.35;101159.73;1617723;87;21092;-52
2022/08/24 01:06:06;;;;;;;8.40;2.83;;;;;;;30.20;49.51;101162.37;1650840;87;21141;-50
2022/08/24 01:08:34;;;;;;;9.18;3.08;;;;;;;30.18;49.66;101160.82;1623397;87;21100;-52
2022/08/24 01:11:04;;;;;;;6.47;2.50;;;;;;;30.14;49.65;101154.91;1623723;87;21006;-49
2022/08/24 01:13:32;;;;;;;12.47;3.45;;;;;;;30.11;49.66;101160.56;1647211;87;20996;-49
2022/08/24 01:16:02;;;;;;;9.18;3.20;;;;;;;30.08;49.66;101162.22;1639417;87;21063;-51
2022/08/24 01:18:48;;;;;;;9.55;3.10;;;;;;;30.06;49.72;101159.33;1639460;87;21074;-50
2022/08/24 01:21:26;;;;;;;11.18;3.10;;;;;;;30.04;49.58;101164.86;1639390;87;20986;-49
2022/08/24 01:23:58;;;;;;;9.25;3.05;;;;;;;30.03;49.69;101162.30;1639345;87;21050;-53
2022/08/24 01:26:32;;;;;;;10.38;2.98;;;;;;;30.00;49.57;101154.07;1639459;87;20970;-49
2022/08/24 01:29:06;;;;;;;11.55;3.50;;;;;;;29.99;49.04;101155.05;1568461;91;21023;-51
2022/08/24 01:31:34;;;;;;;10.38;3.52;;;;;;;29.97;48.70;101161.06;1534108;91;20999;-52
2022/08/24 01:34:01;;;;;;;10.38;3.27;;;;;;;29.96;48.67;101159.38;1563094;91;21042;-49
2022/08/24 01:36:37;;;;;;;7.92;3.15;;;;;;;29.95;48.71;101164.88;1563313;91;21518;-49
2022/08/24 01:39:21;;;;;;;10.45;3.12;;;;;;;29.93;48.70;101159.66;1560280;91;20999;-49
2022/08/24 01:41:48;;;;;;;17.27;3.65;;;;;;;29.91;48.09;101168.36;1562477;91;21039;-50
2022/08/24 01:44:14;;;;;;;11.45;3.50;;;;;;;29.86;47.96;101169.31;1563979;91;21622;-50
2022/08/24 01:46:47;;;;;;;13.15;3.25;;;;;;;29.83;47.99;101174.95;1565618;90;21031;-49
2022/08/24 01:49:15;;;;;;;8.23;3.47;;;;;;;29.79;47.87;101174.91;1565436;91;22014;-49
2022/08/24 01:51:44;;;;;;;10.45;3.47;;;;;;;29.74;47.82;101175.83;1613952;88;21009;-49
2022/08/24 01:54:11;;;;;;;11.90;3.22;;;;;;;29.71;47.79;101180.13;1614896;88;20998;-49
2022/08/24 01:56:38;;;;;;;9.60;3.12;;;;;;;29.67;47.99;101182.75;1617542;88;21625;-52
2022/08/24 01:59:05;;;;;;;7.78;3.15;;;;;;;29.64;47.95;101181.69;1619727;88;20990;-49
2022/08/24 02:01:41;;;;;;;8.93;3.05;;;;;;;29.61;47.72;101177.97;1619551;88;20943;-51
2022/08/24 02:04:07;;;;;;;9.83;3.17;;;;;;;29.58;47.78;101180.92;1599228;89;20982;-49
2022/08/24 02:06:36;;;;;;;10.18;2.60;;;;;;;29.55;47.92;101187.41;1661371;85;21490;-49
2022/08/24 02:09:05;;;;;;;7.72;2.83;;;;;;;29.54;48.02;101189.77;1706062;84;21524;-49
2022/08/24 02:11:32;;;;;;;8.28;3.27;;;;;;;29.52;48.09;101184.19;1706238;84;21025;-49
2022/08/24 02:13:59;;;;;;;7.65;2.95;;;;;;;29.51;48.10;101194.58;1706241;84;20998;-51
2022/08/24 02:16:26;;;;;;;10.72;3.15;;;;;;;29.49;48.01;101200.58;1706339;84;20990;-54
2022/08/24 02:18:53;;;;;;;5.92;2.90;;;;;;;29.47;47.93;101202.56;1706292;84;20986;-53
2022/08/24 02:21:19;;;;;;;5.58;2.60;;;;;;;29.44;47.85;101207.71;1706291;84;21100;-51
2022/08/24 02:23:46;;;;;;;9.70;3.60;;;;;;;29.43;47.88;101203.84;1706319;84;21034;-49
2022/08/24 02:26:13;;;;;;;11.75;3.47;;;;;;;29.43;47.89;101203.84;1706285;84;21087;-52
2022/08/24 02:28:39;;;;;;;13.15;3.22;;;;;;;29.42;47.92;101205.66;1703879;84;21025;-51
2022/08/24 02:31:08;;;;;;;11.08;2.80;;;;;;;29.42;47.79;101210.17;1706214;84;20963;-49
2022/08/24 02:33:37;;;;;;;6.95;3.22;;;;;;;29.43;47.70;101211.88;1706066;84;20958;-55
2022/08/24 02:36:05;;;;;;;6.33;2.77;;;;;;;29.43;47.47;101205.18;1701158;84;20982;-48
2022/08/24 02:38:32;;;;;;;9.35;3.10;;;;;;;29.41;47.04;101220.05;1706258;84;20978;-50
2022/08/24 02:40:59;;;;;;;4.80;3.27;;;;;;;29.40;46.91;101214.83;1706230;84;21491;-53
2022/08/24 02:43:27;;;;;;;7.15;3.10;;;;;;;29.38;46.78;101219.49;1706314;84;20970;-54
2022/08/24 02:45:54;;;;;;;10.48;3.40;;;;;;;29.37;46.58;101219.13;1698085;83;20986;-52
2022/08/24 02:48:22;;;;;;;9.90;3.27;;;;;;;29.35;46.72;101219.77;1734366;82;21483;-49
2022/08/24 02:50:50;;;;;;;6.60;3.17;;;;;;;29.31;46.59;101225.06;1725986;83;20971;-52
2022/08/24 02:53:18;;;;;;;8.08;3.30;;;;;;;29.27;46.77;101222.31;1726089;83;20994;-50
2022/08/24 02:55:46;;;;;;;9.95;4.05;;;;;;;29.22;46.48;101218.73;1729885;82;21550;-53
2022/08/24 02:58:15;;;;;;;11.30;3.60;;;;;;;29.16;45.94;101219.28;1724041;83;21015;-52
2022/08/24 03:00:44;;;;;;;10.72;4.05;;;;;;;29.12;45.95;101218.35;1784980;80;21014;-49
2022/08/24 03:03:10;;;;;;;10.60;3.90;;;;;;;29.08;46.33;101211.58;1785435;80;20999;-49
2022/08/24 03:05:38;;;;;;;8.50;3.70;;;;;;;29.02;46.60;101209.47;1785383;80;20978;-50
2022/08/24 03:08:05;;;;;;;16.80;4.55;;;;;;;28.98;46.55;101212.41;1785359;80;20979;-48
2022/08/24 03:10:33;;;;;;;11.93;4.62;;;;;;;28.95;46.63;101212.67;1785371;80;21030;-51
2022/08/24 03:13:01;;;;;;;12.03;5.03;;;;;;;28.94;46.63;101219.04;1757178;80;21430;-49
2022/08/24 03:15:28;;;;;;;9.85;4.17;;;;;;;28.92;46.34;101221.50;1785397;80;20990;-51
2022/08/24 03:17:56;;;;;;;10.63;4.10;;;;;;;28.89;45.83;101213.23;1785381;80;20971;-49
2022/08/24 03:20:23;;;;;;;12.68;4.37;;;;;;;28.87;45.65;101217.89;1785389;80;21467;-48
2022/08/24 03:22:50;;;;;;;11.95;4.80;;;;;;;28.85;46.08;101217.19;1785387;80;21593;-51
2022/08/24 03:25:18;;;;;;;10.43;5.50;;;;;;;28.81;45.86;101210.41;1785548;80;21498;-49
2022/08/24 03:27:44;;;;;;;10.58;5.78;;;;;;;28.78;45.84;101213.39;1757019;80;20931;-49
2022/08/24 03:30:13;;;;;;;9.08;5.92;;;;;;;28.77;45.88;101214.36;1785405;80;21037;-49
2022/08/24 03:32:40;;;;;;;11.70;6.33;;;;;;;28.76;45.47;101214.50;1785565;80;21002;-50
2022/08/24 03:35:09;;;;;;;11.88;6.33;;;;;;;28.73;45.13;101212.94;1785101;80;21447;-50
2022/08/24 03:37:36;;;;;;;15.25;6.00;;;;;;;28.72;44.87;101219.30;1753687;80;20959;-52
2022/08/24 03:40:05;;;;;;;8.78;6.08;;;;;;;28.72;44.52;101216.63;1756911;80;20982;-52
2022/08/24 03:42:33;;;;;;;17.92;6.87;;;;;;;28.71;44.38;101217.59;1765063;80;20997;-50
2022/08/24 03:44:59;;;;;;;14.00;6.55;;;;;;;28.70;44.27;101215.91;1785443;80;21017;-51
2022/08/24 03:47:26;;;;;;;12.50;6.50;;;;;;;28.68;44.29;101217.89;1785592;80;21001;-48
2022/08/24 03:49:55;;;;;;;13.30;7.30;;;;;;;28.68;44.33;101219.22;1785285;80;21436;-50
2022/08/24 03:52:22;;;;;;;11.10;6.50;;;;;;;28.67;44.16;101218.00;1785606;80;20939;-54
2022/08/24 03:54:50;;;;;;;12.23;6.10;;;;;;;28.65;43.98;101223.98;1752003;82;21043;-49
2022/08/24 03:57:17;;;;;;;9.60;5.58;;;;;;;28.63;43.65;101216.09;1755399;80;21006;-48
2022/08/24 03:59:43;;;;;;;9.93;5.95;;;;;;;28.59;43.66;101210.66;1755469;80;21003;-50
2022/08/24 04:02:11;;;;;;;20.52;7.58;;;;;;;28.57;43.60;101215.31;1755654;80;20955;-53
2022/08/24 04:04:37;;;;;;;9.63;6.35;;;;;;;28.54;43.74;101211.52;1730564;82;21469;-50
2022/08/24 04:07:05;;;;;;;11.43;6.85;;;;;;;28.48;43.98;101210.73;1755883;82;20963;-49
2022/08/24 04:09:32;;;;;;;10.20;6.35;;;;;;;28.46;44.28;101211.88;1755598;80;20971;-49
2022/08/24 04:11:59;;;;;;;9.80;6.30;;;;;;;28.44;44.11;101213.33;1755533;80;20970;-50
2022/08/24 04:14:26;;;;;;;14.20;6.47;;;;;;;28.40;44.30;101205.22;1755706;81;20979;-51
2022/08/24 04:16:54;;;;;;;14.43;7.17;;;;;;;28.40;44.72;101210.57;1754956;80;20980;-50
2022/08/24 04:19:23;;;;;;;12.00;6.53;;;;;;;28.41;45.26;101202.91;1756110;80;20998;-49
2022/08/24 04:21:50;;;;;;;11.50;6.87;;;;;;;28.43;45.71;101209.46;1754963;82;21004;-49
2022/08/24 04:24:19;;;;;;;9.20;6.80;;;;;;;28.44;46.02;101209.31;1755930;80;21463;-49
2022/08/24 04:26:46;;;;;;;18.25;7.50;;;;;;;28.47;46.34;101209.54;1755595;80;20920;-49
2022/08/24 04:29:15;;;;;;;11.18;6.95;;;;;;;28.48;46.67;101208.05;1756254;82;21022;-50
2022/08/24 04:31:44;;;;;;;13.72;6.60;;;;;;;28.53;46.96;101213.86;1755863;80;20994;-51
2022/08/24 04:34:12;;;;;;;17.67;7.25;;;;;;;28.58;47.32;101221.04;1754848;82;21011;-48
2022/08/24 04:36:41;;;;;;;14.30;7.20;;;;;;;28.63;47.40;101209.41;1748961;80;21472;-52
2022/08/24 04:39:07;;;;;;;13.35;6.53;;;;;;;28.68;47.59;101209.85;1755849;80;21006;-49
2022/08/24 04:41:36;;;;;;;15.60;7.30;;;;;;;28.72;48.08;101207.25;1697405;83;21569;-49
2022/08/24 04:44:03;;;;;;;11.55;6.72;;;;;;;28.77;48.52;101213.02;1701946;84;20995;-49
2022/08/24 04:46:30;;;;;;;16.50;6.92;;;;;;;28.83;48.87;101211.12;1638771;86;21008;-49
2022/08/24 04:48:57;;;;;;;14.18;6.65;;;;;;;28.88;49.13;101211.56;1696814;83;20990;-49
2022/08/24 04:51:23;;;;;;;12.95;6.20;;;;;;;28.93;49.08;101206.61;1698231;83;21036;-52
2022/08/24 04:53:50;;;;;;;19.10;6.95;;;;;;;28.98;49.13;101204.86;1698391;83;21444;-49
2022/08/24 04:56:22;;;;;;;13.85;6.42;;;;;;;29.03;49.15;101208.47;1713425;83;20974;-49
2022/08/24 04:58:49;;;;;;;18.92;6.30;;;;;;;29.07;49.04;101206.71;1661527;86;21070;-50
2022/08/24 05:01:19;;;;;;;14.98;5.85;;;;;;;29.12;49.13;101200.41;1694599;84;20991;-49
2022/08/24 05:03:49;;;;;;;16.17;6.22;;;;;;;29.17;49.07;101206.24;1689299;85;21022;-49
2022/08/24 05:06:17;;;;;;;18.15;6.90;;;;;;;29.21;48.81;101202.77;1676369;85;21502;-49
2022/08/24 05:08:46;;;;;;;16.95;6.65;;;;;;;29.26;48.74;101205.89;1689100;85;21447;-55
2022/08/24 05:11:16;;;;;;;17.50;6.70;;;;;;;29.30;48.87;101204.62;1673268;84;21037;-49
2022/08/24 05:13:44;;;;;;;15.95;6.20;;;;;;;29.34;48.90;101200.17;1635440;87;21522;-51
2022/08/24 05:16:16;;;;;;;15.72;6.15;;;;;;;29.39;48.98;101205.08;1661618;86;20943;-49
2022/08/24 05:18:43;;;;;;;18.45;6.87;;;;;;;29.42;49.05;101204.81;1717009;82;20983;-51
2022/08/24 05:21:12;;;;;;;17.65;6.58;;;;;;;29.45;49.13;101207.22;1755619;82;21415;-50
2022/08/24 05:23:39;;;;;;;18.85;7.05;;;;;;;29.47;49.20;101206.06;1755276;81;21522;-52
2022/08/24 05:26:10;;;;;;;20.17;6.15;;;;;;;29.51;49.23;101216.03;1755499;82;20974;-49
2022/08/24 05:28:38;;;;;;;17.07;6.37;;;;;;;29.55;49.31;101218.77;1755566;81;20970;-49
2022/08/24 05:31:16;;;;;;;21.23;6.87;;;;;;;29.61;49.18;101223.56;1755471;82;20998;-49
2022/08/24 05:33:45;;;;;;;27.40;8.23;;;;;;;29.64;48.95;101220.58;1712457;83;21475;-49
2022/08/24 05:36:27;;;;;;;26.00;6.30;;;;;;;29.67;48.90;101225.17;1726274;83;20974;-52
2022/08/24 05:38:56;;;;;;;15.98;6.03;;;;;;;29.72;48.82;101223.37;1780383;80;20982;-52
2022/08/24 05:41:23;;;;;;;19.10;7.03;;;;;;;29.77;48.95;101227.86;1790337;80;20954;-52
2022/08/24 05:43:52;;;;;;;22.40;7.55;;;;;;;29.83;49.17;101232.64;1785495;80;20986;-49
2022/08/24 05:46:19;;;;;;;30.30;8.13;;;;;;;29.87;49.34;101230.02;1790166;80;21006;-51
2022/08/24 05:48:47;;;;;;;28.87;7.37;;;;;;;29.93;48.99;101228.58;1790181;80;20970;-49
2022/08/24 05:51:32;;;;;;;24.98;7.60;;;;;;;29.96;48.21;101225.62;1790196;80;20963;-49
2022/08/24 05:54:03;;;;;;;25.82;8.15;;;;;;;30.01;47.63;101232.23;1789875;80;20997;-53
2022/08/24 05:56:32;;;;;;;29.98;8.05;;;;;;;30.04;47.35;101240.00;1778392;80;21022;-52
2022/08/24 05:59:01;;;;;;;32.93;8.63;;;;;;;30.08;47.34;101245.91;1779368;80;21014;-52
2022/08/24 06:01:28;;;;;;;30.40;8.08;;;;;;;30.11;47.13;101244.29;1779825;81;21034;-50
2022/08/24 06:03:56;;;;;;;27.37;8.55;;;;;;;30.14;47.22;101254.23;1779712;81;20990;-49
2022/08/24 06:06:24;;;;;;;28.38;7.40;;;;;;;30.18;46.96;101247.57;1779707;81;20967;-52
2022/08/24 06:08:53;;;;;;;28.02;8.08;;;;;;;30.23;47.06;101247.13;1779682;80;20971;-54
2022/08/24 06:11:24;;;;;;;32.08;7.87;;;;;;;30.28;46.79;101253.74;1779675;80;20958;-49
2022/08/24 06:13:53;;;;;;;30.77;8.28;;;;;;;30.34;46.96;101259.89;1779759;80;21408;-50
2022/08/24 06:16:21;;;;;;;25.95;8.48;;;;;;;30.41;47.00;101258.32;1779735;80;21439;-49
2022/08/24 06:18:48;;;;;;;31.50;8.15;;;;;;;30.50;46.70;101266.81;1762980;80;21006;-51
2022/08/24 06:21:18;;;;;;;27.77;7.67;;;;;;;30.57;46.59;101258.16;1777666;81;20951;-49
2022/08/24 06:23:45;;;;;;;35.28;8.48;;;;;;;30.68;46.52;101268.70;1779647;80;20955;-55
2022/08/24 06:28:57;;;;;;;29.10;7.72;;;;;;;30.88;45.95;101260.41;1776636;81;20943;-49
2022/08/24 06:31:24;;;;;;;31.77;7.90;;;;;;;30.95;45.80;101259.31;1779613;80;21475;-49
2022/08/24 06:33:51;;;;;;;35.03;9.68;;;;;;;30.99;45.65;101259.34;1779642;81;20947;-50
2022/08/24 06:36:18;;;;;;;29.67;9.05;;;;;;;31.02;45.60;101263.91;1779594;80;20963;-53
2022/08/24 06:38:45;;;;;;;40.35;8.95;;;;;;;31.05;45.66;101269.00;1757605;80;20963;-49
2022/08/24 06:41:13;;;;;;;34.67;9.70;;;;;;;31.09;45.52;101262.81;1779616;81;20966;-51
2022/08/24 06:43:40;;;;;;;34.27;9.18;;;;;;;31.13;45.40;101262.36;1774781;81;20975;-51
2022/08/24 06:46:08;;;;;;;34.33;9.55;;;;;;;31.19;45.68;101262.23;1776150;81;21021;-51
2022/08/24 06:48:36;;;;;;;32.35;10.55;;;;;;;31.22;45.50;101264.63;1776139;81;20971;-49
2022/08/24 06:51:10;;;;;;;50.52;9.90;;;;;;;31.25;45.27;101254.89;1779525;80;20987;-49
2022/08/24 06:53:38;;;;;;;32.20;8.33;;;;;;;31.28;45.09;101250.04;1779571;80;21447;-56
2022/08/24 06:56:06;;;;;;;37.95;9.95;;;;;;;31.30;44.92;101260.67;1782629;80;21034;-48
2022/08/24 06:58:33;;;;;;;33.45;9.35;;;;;;;31.33;44.76;101257.66;1787700;80;21002;-51
2022/08/24 07:01:14;;;;;;;41.08;9.95;;;;;;;31.35;44.60;101259.69;1757209;80;20959;-49
2022/08/24 07:03:42;;;;;;;36.50;8.93;;;;;;;31.37;44.59;101256.34;1690811;85;21026;-55
2022/08/24 07:06:14;;;;;;;37.73;8.68;;;;;;;31.39;44.27;101264.28;1623638;88;21534;-51
2022/08/24 07:08:42;;;;;;;41.13;9.60;;;;;;;31.41;43.97;101268.51;1620153;88;21067;-53
2022/08/24 07:11:11;;;;;;;35.83;8.45;;;;;;;31.42;43.94;101262.15;1594286;89;21018;-50
2022/08/24 07:13:39;;;;;;;41.53;8.83;;;;;;;31.45;43.90;101265.85;1573739;90;21019;-51
2022/08/24 07:16:06;;;;;;;35.88;8.53;;;;;;;31.46;43.75;101266.70;1571042;90;21026;-49
2022/08/24 07:18:33;;;;;;;46.10;11.38;;;;;;;31.51;43.55;101269.27;1583719;90;21058;-52
2022/08/24 07:21:02;;;;;;;41.65;11.20;;;;;;;31.53;43.58;101273.98;1582187;89;20998;-50
2022/08/24 07:23:39;;;;;;;45.98;9.85;;;;;;;31.58;43.83;101270.34;1581986;90;21074;-55
2022/08/24 07:26:08;;;;;;;41.55;9.38;;;;;;;31.64;43.90;101272.91;1586236;90;21037;-50
2022/08/24 07:28:37;;;;;;;47.60;9.80;;;;;;;31.69;43.44;101273.29;1575938;90;21054;-51
2022/08/24 07:31:05;;;;;;;41.33;9.98;;;;;;;31.76;43.21;101284.61;1581175;90;21045;-52
2022/08/24 07:33:33;;;;;;;48.70;9.73;;;;;;;31.82;43.35;101275.91;1579279;90;21555;-49
2022/08/24 07:36:01;;;;;;;37.28;9.73;;;;;;;31.90;43.01;101279.17;1577606;90;21030;-49
2022/08/24 07:38:28;;;;;;;47.93;10.20;;;;;;;31.97;43.08;101283.79;1579846;90;21034;-49
2022/08/24 07:40:54;;;;;;;38.35;9.40;;;;;;;32.05;43.07;101283.84;1589114;89;21052;-50
2022/08/24 07:43:21;;;;;;;45.58;10.90;;;;;;;32.11;42.99;101288.25;1618964;88;21057;-49
2022/08/24 07:45:49;;;;;;;45.78;9.88;;;;;;;32.16;42.86;101283.22;1625485;88;21090;-53
2022/08/24 07:48:17;;;;;;;52.62;10.10;;;;;;;32.18;42.71;101283.91;1622054;88;21033;-52
2022/08/24 07:50:46;;;;;;;39.95;8.90;;;;;;;32.19;42.63;101282.92;1623249;88;21081;-47
2022/08/24 07:53:13;;;;;;;39.53;10.40;;;;;;;32.19;42.60;101282.39;1622962;88;21048;-50
2022/08/24 07:55:39;;;;;;;43.23;10.55;;;;;;;32.21;42.78;101284.95;1619738;88;21025;-49
2022/08/24 07:58:06;;;;;;;45.00;12.10;;;;;;;32.22;42.95;101282.58;1585744;90;21120;-47
2022/08/24 08:00:35;;;;;;;45.52;9.35;;;;;;;32.24;42.29;101288.65;1563230;91;21037;-49
2022/08/24 08:03:03;;;;;;;37.03;9.45;;;;;;;32.23;42.17;101286.98;1619775;86;20964;-49
2022/08/24 08:05:37;;;;;;;45.58;10.35;;;;;;;32.23;42.20;101284.28;1646564;87;21479;-47
2022/08/24 08:08:03;;;;;;;52.25;11.05;;;;;;;32.24;41.88;101294.03;1718039;83;20978;-48
2022/08/24 08:10:30;;;;;;;37.08;8.98;;;;;;;32.25;41.78;101295.74;1718212;83;21049;-51
2022/08/24 08:12:58;;;;;;;53.63;9.70;;;;;;;32.27;42.17;101296.42;1718350;83;21439;-48
2022/08/24 08:15:25;;;;;;;40.83;10.03;;;;;;;32.29;41.88;101294.41;1718320;83;20983;-46
2022/08/24 08:17:54;;;;;;;44.38;10.32;;;;;;;32.31;41.71;101296.44;1680127;83;21578;-47
2022/08/24 08:20:20;;;;;;;47.10;10.25;;;;;;;32.33;41.43;101294.44;1745546;82;20994;-52
2022/08/24 08:25:38;;;;;;;55.20;10.00;;;;;;;32.35;41.28;101300.50;1754359;82;21495;-48
2022/08/24 08:28:06;;;;;;;46.02;9.98;;;;;;;32.40;40.72;101302.20;1749784;82;21415;-52
2022/08/24 08:30:33;;;;;;;48.83;9.63;;;;;;;32.42;40.88;101301.04;1753864;82;20966;-48
2022/08/24 08:33:00;;;;;;;55.85;11.63;;;;;;;32.45;40.83;101302.57;1754126;81;21502;-52
2022/08/24 08:35:26;;;;;;;46.20;10.50;;;;;;;32.48;40.59;101307.16;1754284;82;21002;-47
2022/08/24 08:37:54;;;;;;;43.50;9.40;;;;;;;32.50;40.73;101310.53;1731063;82;20986;-50
2022/08/24 08:40:42;;;;;;;50.08;11.03;;;;;;;32.52;40.94;101311.75;1753815;82;21017;-47
2022/08/24 08:43:20;;;;;;;44.13;9.65;;;;;;;32.56;40.81;101307.72;1748415;82;20986;-48
2022/08/24 08:46:21;;;;;;;37.73;9.25;;;;;;;32.58;40.29;101311.09;1689072;83;20971;-49
2022/08/24 08:49:39;;;;;;;49.30;9.73;;;;;;;32.62;40.20;101310.59;1670467;85;20987;-54
2022/08/24 08:52:29;;;;;;;49.38;10.45;;;;;;;32.63;39.97;101314.98;1668528;85;21023;-50
2022/08/24 08:55:19;;;;;;;50.98;10.38;;;;;;;32.63;40.08;101314.13;1635305;87;21064;-49
2022/08/24 08:58:03;;;;;;;41.23;9.88;;;;;;;32.66;40.10;101313.83;1643962;86;21044;-49
2022/08/24 09:00:50;;;;;;;37.90;9.85;;;;;;;32.69;40.08;101314.83;1613404;89;21067;-47
2022/08/24 09:03:41;;;;;;;46.80;9.63;;;;;;;32.69;39.79;101310.79;1610910;89;21002;-49
2022/08/24 09:06:49;;;;;;;52.03;12.45;;;;;;;32.71;39.72;101311.47;1606408;89;21490;-50
2022/08/24 09:09:40;;;;;;;43.00;11.25;;;;;;;32.74;39.81;101311.16;1606071;89;20979;-50
2022/08/24 09:12:49;;;;;;;38.23;10.23;;;;;;;32.76;40.01;101313.19;1577784;91;21014;-47
2022/08/24 09:15:43;;;;;;;52.65;13.32;;;;;;;32.76;39.46;101313.19;1573352;90;21022;-51
2022/08/24 09:18:24;;;;;;;47.58;13.03;;;;;;;32.74;39.43;101312.01;1574592;90;21439;-50
2022/08/24 09:21:00;;;;;;;;;;;;;;;32.74;39.42;101307.11;1580581;90;21041;-50
2022/08/24 09:23:52;;;;;;;42.78;13.70;;;;;;;32.71;39.16;101303.38;1578341;90;20125;-54
2022/08/24 09:26:27;;;;;;;46.45;12.88;;;;;;;32.68;39.49;101309.11;1578343;90;21495;-50
2022/08/24 09:29:09;;;;;;;52.80;14.18;;;;;;;32.68;39.36;101302.38;1576517;90;21002;-47
2022/08/24 09:31:56;;;;;;;54.42;15.48;;;;;;;32.70;38.78;101299.02;1575487;90;21121;-48
2022/08/24 09:34:56;;;;;;;54.73;14.90;;;;;;;32.71;38.89;101296.64;1542419;91;21108;-48
2022/08/24 09:37:32;;;;;;;42.62;14.15;;;;;;;32.73;38.55;101304.06;1564023;90;21133;-47
2022/08/24 09:40:41;;;;;;;43.55;15.15;;;;;;;32.71;38.42;101301.54;1559913;90;21100;-49
2022/08/24 09:43:48;;;;;;;61.85;18.27;;;;;;;32.71;38.07;101299.34;1537033;91;21454;-49
2022/08/24 09:46:40;;;;;;;50.55;16.23;;;;;;;32.70;38.05;101297.67;1582726;91;21015;-49
2022/08/24 09:49:30;;;;;;;55.17;17.12;;;;;;;32.70;37.66;101304.41;1627718;88;21511;-47
2022/08/24 09:52:30;;;;;;;53.40;17.87;;;;;;;32.69;37.57;101301.36;1625832;88;21025;-46
2022/08/24 09:55:03;;;;;;;69.95;17.60;;;;;;;32.67;37.28;101299.33;1619528;88;21479;-47
2022/08/24 09:58:16;;;;;;;47.20;15.50;;;;;;;32.66;37.09;101295.81;1641584;86;21049;-49
2022/08/24 10:01:03;;;;;;;45.63;11.45;;;;;;;32.69;36.54;101294.62;1667220;86;21025;-48
2022/08/24 10:04:01;;;;;;;46.23;12.37;;;;;;;32.70;36.53;101294.98;1669324;86;20998;-48
2022/08/24 10:07:21;;;;;;;39.30;12.00;;;;;;;32.69;36.27;101287.38;1668110;86;21073;-50
2022/08/24 10:10:11;;;;;;;43.33;11.73;;;;;;;32.71;36.26;101290.76;1669331;86;21069;-48
2022/08/24 10:12:56;;;;;;;48.10;12.45;;;;;;;32.74;36.56;101289.59;1669523;86;21041;-48
2022/08/24 10:15:33;;;;;;;38.30;10.88;;;;;;;32.78;36.64;101284.22;1669323;86;21512;-50
2022/08/24 10:18:22;;;;;;;35.30;10.35;;;;;;;32.80;36.80;101287.09;1669319;86;20997;-48
2022/08/24 10:21:00;;;;;;;51.83;11.12;;;;;;;32.85;36.92;101286.61;1655539;86;20989;-48
2022/08/24 10:23:50;;;;;;;37.13;9.80;;;;;;;32.88;37.00;101291.66;1669257;86;21482;-47
2022/08/24 10:27:01;;;;;;;49.10;10.40;;;;;;;32.91;37.06;101291.34;1599506;89;20990;-47
2022/08/24 10:29:58;;;;;;;45.78;11.43;;;;;;;32.94;37.40;101282.91;1612330;86;21008;-47
2022/08/24 10:32:56;;;;;;;47.00;11.08;;;;;;;32.96;37.62;101282.23;1648613;87;21527;-51
2022/08/24 10:35:43;;;;;;;40.28;10.65;;;;;;;33.00;37.44;101284.98;1612237;89;21046;-46
2022/08/24 10:41:26;;;;;;;37.75;8.55;;;;;;;33.08;37.29;101282.30;1603414;88;21092;-49
2022/08/24 10:44:21;;;;;;;35.50;9.53;;;;;;;33.10;36.79;101280.28;1603381;88;21010;-49
2022/08/24 10:46:51;;;;;;;45.63;10.43;;;;;;;33.13;36.70;101275.91;1603325;88;21029;-49
2022/08/24 10:49:36;;;;;;;46.65;11.12;;;;;;;33.15;36.78;101268.50;1582807;89;21081;-50
2022/08/24 10:52:36;;;;;;;36.35;9.45;;;;;;;33.15;36.05;101267.15;1582638;89;21581;-51
2022/08/24 10:55:29;;;;;;;40.40;8.85;;;;;;;33.13;36.31;101265.13;1582775;89;21008;-48
2022/08/24 10:58:24;;;;;;;48.13;11.50;;;;;;;33.13;35.48;101260.23;1528280;92;21094;-47
2022/08/24 11:00:51;;;;;;;42.40;11.00;;;;;;;33.14;35.64;101261.41;1508692;94;21027;-50
2022/08/24 11:05:51;;;;;;;33.80;10.30;;;;;;;33.20;35.36;101263.43;1591136;89;21031;-50
2022/08/24 11:08:27;;;;;;;34.92;9.18;;;;;;;33.26;34.82;101264.64;1590823;89;21313;-50
2022/08/24 11:11:12;;;;;;;35.10;9.48;;;;;;;33.29;34.23;101270.53;1586028;89;21060;-50
2022/08/24 11:14:01;;;;;;;37.75;9.08;;;;;;;33.33;34.29;101271.88;1648314;85;21053;-48
2022/08/24 11:16:36;;;;;;;37.23;8.70;;;;;;;33.38;34.23;101276.28;1597085;90;21052;-48
2022/08/24 11:19:08;;;;;;;37.73;9.58;;;;;;;33.43;34.40;101265.81;1597077;90;21554;-51
2022/08/24 11:21:46;;;;;;;36.98;8.48;;;;;;;33.47;34.05;101271.21;1581910;90;21010;-47
2022/08/24 11:24:23;;;;;;;42.60;8.05;;;;;;;33.49;33.40;101272.45;1594049;90;21084;-46
2022/08/24 11:27:04;;;;;;;32.20;7.30;;;;;;;33.50;33.77;101275.47;1600071;89;21034;-47
2022/08/24 11:29:53;;;;;;;33.55;6.53;;;;;;;33.54;34.47;101271.41;1599867;89;21539;-51
2022/08/24 11:32:39;;;;;;;41.23;9.03;;;;;;;33.58;34.46;101276.31;1561350;92;21049;-49
2022/08/24 11:35:27;;;;;;;27.05;6.08;;;;;;;33.62;34.63;101270.91;1572016;90;21149;-49
2022/08/24 11:37:56;;;;;;;29.57;7.40;;;;;;;33.68;34.60;101268.03;1576444;90;21552;-49
2022/08/24 11:40:29;;;;;;;25.10;5.45;;;;;;;33.73;34.40;101268.88;1576730;90;21001;-50
2022/08/24 11:43:43;;;;;;;32.23;6.35;;;;;;;33.77;34.04;101278.31;1577596;90;21025;-47
2022/08/24 11:46:28;;;;;;;26.93;6.40;;;;;;;33.79;32.92;101268.19;1570102;90;21014;-47
2022/08/24 11:49:24;;;;;;;20.27;5.17;;;;;;;33.78;33.08;101266.52;1579561;90;21058;-49
2022/08/24 11:52:26;;;;;;;19.35;5.30;;;;;;;33.78;33.00;101265.17;1578482;90;21546;-47
2022/08/24 11:55:19;;;;;;;24.12;5.60;;;;;;;33.80;33.47;101264.49;1565216;91;21034;-48
2022/08/24 11:58:02;;;;;;;31.25;6.85;;;;;;;33.82;33.51;101265.16;1555242;91;21030;-47